KHBR

Hobart Regional Airport

Hobart, Oklahoma, USA
METAR KHBR 122053Z AUTO 20011KT 9SM CLR 12/07 A2978 RMK AO2 SLP083 T01170067 56033
Observed Flight Rules
Dec-12 @ 20:53 UTC (14 minutes ago) Visual Flight Rules
Wind Visibility Clouds
200° at 11 knots 9 miles
  • Clear skies
Temperatures Readings
Current 12°C / 54°F
Dewpoint 7°C / 45°F
Humidity 72%
Altimeter 29.78" Hg
Pressure 1008.3 hPa
Elevation 473
METAR KHBR 122053Z AUTO 20011KT 9SM CLR 12/07 A2978 RMK AO2 SLP083 T01170067 56033
Observed Flight Rules
Dec-12 @ 20:53 UTC
(14 minutes ago)
VFR
Wind Visibility
200° at 11 knots 9 miles
Clouds
  • Clear skies
Temperature Dewpoint
12°C / 54°F 7°C / 45°F
Humidity Altimeter Pressure
72% 29.78" Hg 1008.3 hPa